Araijuku, Japan

10:27 PM JST on September 22, 2017 (GMT +0900)
大田区 | | Change Station

Elev 0 ft 35.58 °N, 139.71 °E | Updated 6 minutes ago

Rain
Rain
71.1 °F
Feels Like 71.1 °F
N
0.6
Wind Variable Wind from West
Gusts 4.3 mph

Today
High -- | Low -- °F
--% Chance of Precip.
Yesterday
High -- | Low -- °F
Precip. -- in
Pressure 29.98 in
Visibility 5.0 miles
Clouds Few 600 ft
Scattered Clouds 2000 ft
Overcast 12000 ft
Dew Point 68 °F
Humidity 91%
Rainfall 0.67 in
Snow Depth Not available.
5:28 AM 5:38 PM
Waxing Crescent, 6% visible
METAR RJTT 221300Z 15013KT 8000 -RA FEW006 SCT020 OVC120 21/21 Q1015 TEMPO 4000 SHRA BR FEW010 BKN012 RMK 1ST006 3CU020 8AS120 A2998
Pressure 29.98 in
Visibility 5.0 miles
Clouds Few 600 ft
Scattered Clouds 2000 ft
Overcast 12000 ft
Dew Point 68 °F
Humidity 91%
Rainfall 0.67 in
Snow Depth Not available.
5:28 AM 5:38 PM
Waxing Crescent, 6% visible
METAR RJTT 221300Z 15013KT 8000 -RA FEW006 SCT020 OVC120 21/21 Q1015 TEMPO 4000 SHRA BR FEW010 BKN012 RMK 1ST006 3CU020 8AS120 A2998

Get Severe Weather Alerts

Thanks for signing up!

Be on the lookout for a verification email in your inbox.

You'll start receiving the daily forecast at 6 AM.

×

10-Day Weather Forecast

No radar image for this location.
×

Almanac

Astronomy

Sep. 22, 2017 Rise Set
Actual Time
Civil Twilight
Nautical Twilight
Astronomical Twilight
Moon
Length of Visible Light
Length of Day
Tomorrow will be .
, % of the Moon is Illuminated

Today's Extremes

Country Highs Country Lows

Community

WunderPhotos

Category 6

Welcome to Category 6. This is the collective home for Weather Underground's featured writeups by Dr. Jeff Masters (right), Bob Henson (left), Chris Burt, and other regular contributors.

Nearby

Air Quality

  Air Quality AQ Index Pollutant
Not available.

Snow Depth

Station Depth Elevation

Earthquake Activity

City Distance Mag. Time & Date
Minimum magnitude displayed is 2.5.

Coastal Water Temperatures

Place Temperature

Stations

Nearby Weather Stations

Station Location Temp. Windchill Dew Point Humidity Wind Precip. Elev Updated Type